Somerville, Massachusetts
Current Conditions -  °F | °C
As of 4:54 PM on Friday 19 Dec 2014 (Local Time) from KBOS Reporting Station
Few Clouds Few Clouds  
Wind Chill: 24°   Ceiling: Unl
Heat Index: 33°   Visibility: 10mi
Dew Point: 21°   Wind: 13mph
Humidity: 61%   Direction: 320°NW
Pressure: 30.03"   Gusts: NA
Location:  42.39°N, 71.1°W
Report Text: KBOS 192154Z 32011KT 10SM FEW035 01/M06 A3003 RMK AO2 SLP167 T00061061
Loading
Personal Weather Stations






























Interactive Weather Map New forecast layout! Learn more

10-Day Weather Forecast

Advertisements
Track Severe Weather on mobile